sensor_id;sensor_type;location;lat;lon;timestamp;pressure;altitude;pressure_sealevel;temperature;humidity
16194;BME280;8204;53.582;10.080;2022-12-20T16:57:16;99270.47;;;10.98;100.00
16194;BME280;8204;53.582;10.080;2022-12-20T16:59:47;99250.13;;;11.00;100.00
16194;BME280;8204;53.582;10.080;2022-12-20T17:02:21;99246.09;;;11.04;100.00
16194;BME280;8204;53.582;10.080;2022-12-20T17:04:51;99240.47;;;11.07;100.00
16194;BME280;8204;53.582;10.080;2022-12-20T17:07:22;99241.69;;;11.11;100.00
16194;BME280;8204;53.582;10.080;2022-12-20T17:09:51;99240.69;;;11.12;100.00
16194;BME280;8204;53.582;10.080;2022-12-20T17:12:23;99219.72;;;11.12;100.00
16194;BME280;8204;53.582;10.080;2022-12-20T17:14:51;99229.00;;;11.15;100.00
16194;BME280;8204;53.582;10.080;2022-12-20T17:17:21;99243.31;;;11.12;100.00
16194;BME280;8204;53.582;10.080;2022-12-20T17:19:50;99257.22;;;11.13;100.00
16194;BME280;8204;53.582;10.080;2022-12-20T17:22:19;99239.47;;;11.15;100.00
16194;BME280;8204;53.582;10.080;2022-12-20T17:24:48;99244.69;;;11.08;100.00
16194;BME280;8204;53.582;10.080;2022-12-20T17:27:16;99231.81;;;11.13;100.00
16194;BME280;8204;53.582;10.080;2022-12-20T17:29:48;99240.28;;;11.15;100.00
16194;BME280;8204;53.582;10.080;2022-12-20T17:32:19;99247.75;;;11.18;100.00
16194;BME280;8204;53.582;10.080;2022-12-20T17:34:49;99231.63;;;11.21;100.00
16194;BME280;8204;53.582;10.080;2022-12-20T17:37:18;99231.84;;;11.26;100.00
16194;BME280;8204;53.582;10.080;2022-12-20T17:39:47;99239.91;;;11.31;100.00
16194;BME280;8204;53.582;10.080;2022-12-20T17:42:16;99248.78;;;11.30;100.00
16194;BME280;8204;53.582;10.080;2022-12-20T17:44:44;99238.28;;;11.24;100.00
16194;BME280;8204;53.582;10.080;2022-12-20T17:47:16;99233.84;;;11.18;100.00
16194;BME280;8204;53.582;10.080;2022-12-20T17:49:45;99231.22;;;11.24;100.00
16194;BME280;8204;53.582;10.080;2022-12-20T17:52:14;99222.97;;;11.34;100.00
16194;BME280;8204;53.582;10.080;2022-12-20T17:54:42;99224.38;;;11.36;100.00
16194;BME280;8204;53.582;10.080;2022-12-20T17:57:12;99224.16;;;11.38;100.00
16194;BME280;8204;53.582;10.080;2022-12-20T17:59:42;99236.91;;;11.41;100.00
16194;BME280;8204;53.582;10.080;2022-12-20T18:02:18;99245.16;;;11.44;100.00
16194;BME280;8204;53.582;10.080;2022-12-20T18:04:48;99241.97;;;11.49;100.00
16194;BME280;8204;53.582;10.080;2022-12-20T18:07:17;99241.97;;;11.49;100.00
16194;BME280;8204;53.582;10.080;2022-12-20T18:09:46;99247.00;;;11.50;100.00
16194;BME280;8204;53.582;10.080;2022-12-20T18:12:15;99246.38;;;11.48;100.00
16194;BME280;8204;53.582;10.080;2022-12-20T18:14:46;99259.69;;;11.47;100.00
16194;BME280;8204;53.582;10.080;2022-12-20T18:17:18;99262.13;;;11.48;100.00
16194;BME280;8204;53.582;10.080;2022-12-20T18:19:47;99272.66;;;11.55;100.00
16194;BME280;8204;53.582;10.080;2022-12-20T18:22:16;99263.38;;;11.52;100.00
16194;BME280;8204;53.582;10.080;2022-12-20T18:24:45;99269.41;;;11.53;100.00
16194;BME280;8204;53.582;10.080;2022-12-20T18:27:14;99272.66;;;11.55;100.00
16194;BME280;8204;53.582;10.080;2022-12-20T18:29:43;99270.03;;;11.55;100.00
16194;BME280;8204;53.582;10.080;2022-12-20T18:32:12;99279.91;;;11.53;100.00
16194;BME280;8204;53.582;10.080;2022-12-20T18:34:43;99277.50;;;11.51;100.00
16194;BME280;8204;53.582;10.080;2022-12-20T18:37:14;99270.66;;;11.57;100.00
16194;BME280;8204;53.582;10.080;2022-12-20T18:39:42;99276.06;;;11.55;100.00
16194;BME280;8204;53.582;10.080;2022-12-20T18:42:11;99277.28;;;11.53;100.00
16194;BME280;8204;53.582;10.080;2022-12-20T18:44:41;99270.84;;;11.55;100.00
16194;BME280;8204;53.582;10.080;2022-12-20T18:47:10;99278.09;;;11.60;100.00
16194;BME280;8204;53.582;10.080;2022-12-20T18:49:39;99295.88;;;11.64;100.00
16194;BME280;8204;53.582;10.080;2022-12-20T18:52:10;99300.50;;;11.62;100.00
16194;BME280;8204;53.582;10.080;2022-12-20T18:54:40;99301.31;;;11.56;100.00
16194;BME280;8204;53.582;10.080;2022-12-20T18:57:09;99315.44;;;11.55;100.00
16194;BME280;8204;53.582;10.080;2022-12-20T18:59:38;99304.56;;;11.58;100.00
16194;BME280;8204;53.582;10.080;2022-12-20T19:02:08;99305.34;;;11.59;100.00
16194;BME280;8204;53.582;10.080;2022-12-20T19:04:39;99302.13;;;11.63;100.00
16194;BME280;8204;53.582;10.080;2022-12-20T19:07:11;99300.34;;;11.64;100.00
16194;BME280;8204;53.582;10.080;2022-12-20T19:09:40;99312.56;;;11.50;100.00
16194;BME280;8204;53.582;10.080;2022-12-20T19:12:09;99294.44;;;11.55;100.00
16194;BME280;8204;53.582;10.080;2022-12-20T19:14:38;99292.06;;;11.60;100.00
16194;BME280;8204;53.582;10.080;2022-12-20T19:17:07;99295.47;;;11.61;100.00
16194;BME280;8204;53.582;10.080;2022-12-20T19:19:36;99284.78;;;11.62;100.00
16194;BME280;8204;53.582;10.080;2022-12-20T19:22:05;99260.16;;;11.63;100.00
16194;BME280;8204;53.582;10.080;2022-12-20T19:24:36;99273.06;;;11.64;100.00
16194;BME280;8204;53.582;10.080;2022-12-20T19:27:06;99271.66;;;11.62;100.00
16194;BME280;8204;53.582;10.080;2022-12-20T19:29:35;99265.81;;;11.60;100.00
16194;BME280;8204;53.582;10.080;2022-12-20T19:32:04;99251.66;;;11.61;100.00
16194;BME280;8204;53.582;10.080;2022-12-20T19:34:33;99242.78;;;11.62;100.00
16194;BME280;8204;53.582;10.080;2022-12-20T19:37:02;99230.28;;;11.64;100.00
16194;BME280;8204;53.582;10.080;2022-12-20T19:39:30;99228.66;;;11.63;100.00
16194;BME280;8204;53.582;10.080;2022-12-20T19:42:02;99231.91;;;11.65;100.00
16194;BME280;8204;53.582;10.080;2022-12-20T19:44:30;99215.34;;;11.64;100.00
16194;BME280;8204;53.582;10.080;2022-12-20T19:46:59;99207.69;;;11.63;100.00
16194;BME280;8204;53.582;10.080;2022-12-20T19:49:28;99202.84;;;11.60;100.00
16194;BME280;8204;53.582;10.080;2022-12-20T19:51:57;99197.00;;;11.58;100.00
16194;BME280;8204;53.582;10.080;2022-12-20T19:54:26;99171.75;;;11.57;100.00
16194;BME280;8204;53.582;10.080;2022-12-20T19:56:56;99156.41;;;11.54;100.00
16194;BME280;8204;53.582;10.080;2022-12-20T19:59:27;99140.28;;;11.57;100.00
16194;BME280;8204;53.582;10.080;2022-12-20T20:01:57;99129.41;;;11.60;100.00
16194;BME280;8204;53.582;10.080;2022-12-20T20:04:26;99119.69;;;11.61;100.00
16194;BME280;8204;53.582;10.080;2022-12-20T20:06:55;99123.34;;;11.66;100.00
16194;BME280;8204;53.582;10.080;2022-12-20T20:09:24;99128.59;;;11.66;100.00
16194;BME280;8204;53.582;10.080;2022-12-20T20:11:53;99121.72;;;11.65;100.00
16194;BME280;8204;53.582;10.080;2022-12-20T20:14:22;99114.44;;;11.67;100.00
16194;BME280;8204;53.582;10.080;2022-12-20T20:16:53;99121.91;;;11.70;100.00
16194;BME280;8204;53.582;10.080;2022-12-20T20:19:22;99114.44;;;11.67;100.00
16194;BME280;8204;53.582;10.080;2022-12-20T20:21:51;99107.59;;;11.66;100.00
16194;BME280;8204;53.582;10.080;2022-12-20T20:24:20;99105.75;;;11.66;100.00
16194;BME280;8204;53.582;10.080;2022-12-20T20:26:49;99090.03;;;11.66;100.00
16194;BME280;8204;53.582;10.080;2022-12-20T20:29:18;99092.66;;;11.66;100.00
16194;BME280;8204;53.582;10.080;2022-12-20T20:31:47;99087.41;;;11.66;100.00
16194;BME280;8204;53.582;10.080;2022-12-20T20:34:18;99078.91;;;11.64;100.00
16194;BME280;8204;53.582;10.080;2022-12-20T20:36:47;99076.09;;;11.66;100.00
16194;BME280;8204;53.582;10.080;2022-12-20T20:39:15;99065.63;;;11.66;100.00
16194;BME280;8204;53.582;10.080;2022-12-20T20:41:44;99061.78;;;11.68;100.00
16194;BME280;8204;53.582;10.080;2022-12-20T20:44:13;99065.63;;;11.66;100.00
16194;BME280;8204;53.582;10.080;2022-12-20T20:46:42;99061.94;;;11.67;100.00
16194;BME280;8204;53.582;10.080;2022-12-20T20:49:11;99056.13;;;11.65;100.00
16194;BME280;8204;53.582;10.080;2022-12-20T20:51:42;99061.94;;;11.67;100.00
16194;BME280;8204;53.582;10.080;2022-12-20T20:54:11;99059.94;;;11.69;100.00
16194;BME280;8204;53.582;10.080;2022-12-20T20:56:40;99051.28;;;11.62;100.00
16194;BME280;8204;53.582;10.080;2022-12-20T20:59:09;99055.13;;;11.60;100.00
16194;BME280;8204;53.582;10.080;2022-12-20T21:01:38;99046.25;;;11.61;100.00
16194;BME280;8204;53.582;10.080;2022-12-20T21:04:06;99032.53;;;11.59;100.00
16194;BME280;8204;53.582;10.080;2022-12-20T21:06:35;99037.97;;;11.57;100.00
16194;BME280;8204;53.582;10.080;2022-12-20T21:09:08;99040.59;;;11.57;100.00
16194;BME280;8204;53.582;10.080;2022-12-20T21:11:37;99034.34;;;11.58;100.00
16194;BME280;8204;53.582;10.080;2022-12-20T21:14:05;99023.25;;;11.56;100.00
16194;BME280;8204;53.582;10.080;2022-12-20T21:16:36;99022.03;;;11.59;100.00
16194;BME280;8204;53.582;10.080;2022-12-20T21:19:08;99025.88;;;11.56;100.00
16194;BME280;8204;53.582;10.080;2022-12-20T21:21:37;99021.63;;;11.55;100.00
16194;BME280;8204;53.582;10.080;2022-12-20T21:24:08;99011.56;;;11.52;100.00
16194;BME280;8204;53.582;10.080;2022-12-20T21:26:37;99009.94;;;11.51;100.00
16194;BME280;8204;53.582;10.080;2022-12-20T21:29:06;99006.31;;;11.52;100.00
16194;BME280;8204;53.582;10.080;2022-12-20T21:31:35;99007.94;;;11.53;100.00
16194;BME280;8204;53.582;10.080;2022-12-20T21:34:04;99012.38;;;11.53;100.00
16194;BME280;8204;53.582;10.080;2022-12-20T21:36:33;99011.56;;;11.52;100.00
16194;BME280;8204;53.582;10.080;2022-12-20T21:39:02;98998.63;;;11.51;100.00
16194;BME280;8204;53.582;10.080;2022-12-20T21:41:33;99000.44;;;11.50;100.00
16194;BME280;8204;53.582;10.080;2022-12-20T21:44:02;98996.19;;;11.49;100.00
16194;BME280;8204;53.582;10.080;2022-12-20T21:46:31;98984.91;;;11.49;100.00
16194;BME280;8204;53.582;10.080;2022-12-20T21:49:00;98985.72;;;11.49;100.00
16194;BME280;8204;53.582;10.080;2022-12-20T21:51:29;98980.47;;;11.49;100.00
16194;BME280;8204;53.582;10.080;2022-12-20T21:54:01;98956.28;;;11.47;100.00
16194;BME280;8204;53.582;10.080;2022-12-20T21:56:33;98947.81;;;11.45;100.00
16194;BME280;8204;53.582;10.080;2022-12-20T21:59:02;98947.38;;;11.48;100.00
16194;BME280;8204;53.582;10.080;2022-12-20T22:01:32;98937.50;;;11.50;100.00
16194;BME280;8204;53.582;10.080;2022-12-20T22:04:02;98938.50;;;11.49;100.00
16194;BME280;8204;53.582;10.080;2022-12-20T22:06:32;98928.00;;;11.49;100.00
16194;BME280;8204;53.582;10.080;2022-12-20T22:09:02;98930.44;;;11.51;100.00
16194;BME280;8204;53.582;10.080;2022-12-20T22:11:37;98922.38;;;11.52;100.00
16194;BME280;8204;53.582;10.080;2022-12-20T22:14:07;98943.38;;;11.52;100.00
16194;BME280;8204;53.582;10.080;2022-12-20T22:16:36;98940.94;;;11.51;100.00
16194;BME280;8204;53.582;10.080;2022-12-20T22:19:04;98933.25;;;11.49;100.00
16194;BME280;8204;53.582;10.080;2022-12-20T22:21:33;98930.84;;;11.48;100.00
16194;BME280;8204;53.582;10.080;2022-12-20T22:24:03;98926.38;;;11.48;100.00
16194;BME280;8204;53.582;10.080;2022-12-20T22:26:32;98924.19;;;11.45;100.00
16194;BME280;8204;53.582;10.080;2022-12-20T22:29:05;98915.31;;;11.46;100.00
16194;BME280;8204;53.582;10.080;2022-12-20T22:31:34;98919.56;;;11.47;100.00
16194;BME280;8204;53.582;10.080;2022-12-20T22:34:03;98921.56;;;11.45;100.00
16194;BME280;8204;53.582;10.080;2022-12-20T22:36:33;98927.03;;;11.44;100.00
16194;BME280;8204;53.582;10.080;2022-12-20T22:39:02;98919.16;;;11.44;100.00
16194;BME280;8204;53.582;10.080;2022-12-20T22:41:31;98912.31;;;11.43;100.00
16194;BME280;8204;53.582;10.080;2022-12-20T22:44:04;98922.81;;;11.43;100.00
16194;BME280;8204;53.582;10.080;2022-12-20T22:46:34;98920.38;;;11.41;100.00
16194;BME280;8204;53.582;10.080;2022-12-20T22:49:03;98919.34;;;11.42;100.00
16194;BME280;8204;53.582;10.080;2022-12-20T22:51:32;98923.00;;;11.41;100.00
16194;BME280;8204;53.582;10.080;2022-12-20T22:54:01;98933.69;;;11.40;100.00
16194;BME280;8204;53.582;10.080;2022-12-20T22:56:30;98932.47;;;11.42;100.00
16194;BME280;8204;53.582;10.080;2022-12-20T22:58:59;98916.16;;;11.40;100.00
16194;BME280;8204;53.582;10.080;2022-12-20T23:01:31;98908.47;;;11.39;100.00
16194;BME280;8204;53.582;10.080;2022-12-20T23:04:01;98906.69;;;11.39;100.00
16194;BME280;8204;53.582;10.080;2022-12-20T23:06:30;98923.19;;;11.40;100.00
16194;BME280;8204;53.582;10.080;2022-12-20T23:08:59;98914.53;;;11.39;100.00
16194;BME280;8204;53.582;10.080;2022-12-20T23:11:28;98912.72;;;11.40;100.00
16194;BME280;8204;53.582;10.080;2022-12-20T23:14:13;98904.84;;;11.40;100.00
16194;BME280;8204;53.582;10.080;2022-12-20T23:16:58;98905.25;;;11.43;100.00
16194;BME280;8204;53.582;10.080;2022-12-20T23:19:27;98902.22;;;11.40;100.00
16194;BME280;8204;53.582;10.080;2022-12-20T23:22:18;98885.25;;;11.42;100.00
16194;BME280;8204;53.582;10.080;2022-12-20T23:25:00;98879.84;;;11.44;100.00
16194;BME280;8204;53.582;10.080;2022-12-20T23:27:29;98884.88;;;11.45;100.00
16194;BME280;8204;53.582;10.080;2022-12-20T23:29:58;98879.84;;;11.44;100.00
16194;BME280;8204;53.582;10.080;2022-12-20T23:32:30;98876.00;;;11.46;100.00
16194;BME280;8204;53.582;10.080;2022-12-20T23:35:00;98879.84;;;11.44;100.00
16194;BME280;8204;53.582;10.080;2022-12-20T23:37:29;98867.50;;;11.44;100.00
16194;BME280;8204;53.582;10.080;2022-12-20T23:39:58;98867.28;;;11.46;100.00
16194;BME280;8204;53.582;10.080;2022-12-20T23:42:26;98859.44;;;11.46;100.00
16194;BME280;8204;53.582;10.080;2022-12-20T23:44:55;98869.13;;;11.45;100.00
16194;BME280;8204;53.582;10.080;2022-12-20T23:47:24;98868.69;;;11.48;100.00
16194;BME280;8204;53.582;10.080;2022-12-20T23:49:55;98877.16;;;11.50;100.00
16194;BME280;8204;53.582;10.080;2022-12-20T23:52:24;98870.75;;;11.46;100.00
16194;BME280;8204;53.582;10.080;2022-12-20T23:54:53;98867.13;;;11.47;100.00
16194;BME280;8204;53.582;10.080;2022-12-20T23:57:22;98875.56;;;11.49;100.00
16194;BME280;8204;53.582;10.080;2022-12-20T23:59:51;98871.75;;;11.45;100.00
